CZFN/ZFN METAR and TAF weather

Enter ICAO airport designator
Station Type Date Time Source
CZFN METAR 2018/04/20 23:00 UTC NOAA

CZFN 202300Z 09004KT 050V110 20SM SCT030 M08/M18 A2995 RMK SC3 -7.8 / -14.7 / TR / SNOW CVR / MEDIUM PACK / LAST STFD OBS/NEXT 231500Z SLP155


Station Type Date Time Source
CZFN Decoded METAR 2018/04/20 23:00 UTC NOAA

Fort Norman Airport, Canada (CZFN) 64-55N 125-34W
Apr 20, 2018 - 07:00 PM EDT / 2018.04.20 2300 UTC
Wind: from the E (090 degrees) at 5 MPH (4 KT) (direction variable):0
Visibility: 20 mile(s):0
Sky conditions: partly cloudy
Temperature: 17 F (-8 C)
Windchill: 8 F (-13 C):1
Dew Point: 0 F (-18 C)
Relative Humidity: 44%
Pressure (altimeter): 29.95 in. Hg (1014 hPa)
ob: CZFN 202300Z 09004KT 050V110 20SM SCT030 M08/M18 A2995 RMK SC3 -7.8 / -14.7 / TR / SNOW CVR / MEDIUM PACK / LAST STFD OBS/NEXT 231500Z SLP155
cycle: 23

Station Type Date Time Source
CZFN TAF UTC NOAA

Error!


Example: see airport list